Time;durP1;ratioP1;P1;durP2;ratioP2;P2;SDS_P1;SDS_P2;PMS_P1;PMS_P2;Temp;Humidity;BMP_temperature;BMP_pressure;BME280_temperature;BME280_humidity;BME280_pressure;Samples;Min_cycle;Max_cycle;Signal;HPM_P1;HPM_P2
2022/06/15 00:01:42;;;;;;;8.67;4.20;;;14.90;35.70;;;;;;5051870;28;46212;-63
2022/06/15 00:04:08;;;;;;;8.77;4.10;;;14.90;35.80;;;;;;5052179;28;46322;-63
2022/06/15 00:06:37;;;;;;;14.80;4.50;;;14.90;35.90;;;;;;5052149;28;46347;-63
2022/06/15 00:09:04;;;;;;;8.53;4.07;;;14.90;36.10;;;;;;5049335;28;46634;-64
2022/06/15 00:11:37;;;;;;;9.00;3.70;;;14.90;36.20;;;;;;5052813;28;46627;-63
2022/06/15 00:14:10;;;;;;;7.70;4.93;;;14.80;36.30;;;;;;5054088;28;45949;-62
2022/06/15 00:16:36;;;;;;;9.13;4.47;;;14.80;36.60;;;;;;5052802;28;46339;-62
2022/06/15 00:19:04;;;;;;;7.90;3.90;;;14.80;36.60;;;;;;5053167;28;46418;-63
2022/06/15 00:21:30;;;;;;;8.23;4.57;;;14.80;36.80;;;;;;5049810;28;46651;-63
2022/06/15 00:23:57;;;;;;;20.90;4.83;;;14.70;36.90;;;;;;5053721;28;46369;-63
2022/06/15 00:26:23;;;;;;;11.67;4.00;;;14.70;37.20;;;;;;5052295;28;46403;-63
2022/06/15 00:28:51;;;;;;;8.23;3.80;;;14.70;37.20;;;;;;5053557;28;46729;-63
2022/06/15 00:31:18;;;;;;;7.20;4.20;;;14.60;37.40;;;;;;5053384;28;46770;-63
2022/06/15 00:33:43;;;;;;;15.53;4.27;;;14.50;37.70;;;;;;5052980;28;46510;-63
2022/06/15 00:36:13;;;;;;;5.93;3.93;;;14.40;39.20;;;;;;5050203;28;45938;-63
2022/06/15 00:38:50;;;;;;;10.00;4.70;;;14.30;38.40;;;;;;5052629;28;46361;-62
2022/06/15 00:41:22;;;;;;;7.30;4.13;;;14.20;38.80;;;;;;5052515;28;46721;-62
2022/06/15 00:43:51;;;;;;;10.40;5.00;;;14.20;39.00;;;;;;5051886;28;46321;-63
2022/06/15 00:46:20;;;;;;;11.03;4.50;;;14.10;39.10;;;;;;5052150;28;46478;-62
2022/06/15 00:48:49;;;;;;;8.87;4.90;;;14.10;39.40;;;;;;5048024;28;46438;-63
2022/06/15 00:51:15;;;;;;;10.20;5.10;;;14.10;39.60;;;;;;5051920;28;46409;-64
2022/06/15 00:53:41;;;;;;;10.50;5.13;;;14.00;39.80;;;;;;5055286;28;46460;-63
2022/06/15 00:56:08;;;;;;;8.23;5.27;;;13.90;39.90;;;;;;5051705;28;46488;-63
2022/06/15 00:58:37;;;;;;;14.70;5.17;;;14.00;40.20;;;;;;5049685;28;46217;-62
2022/06/15 01:01:04;;;;;;;9.80;5.23;;;13.90;40.40;;;;;;5053188;28;46461;-64
2022/06/15 01:03:30;;;;;;;9.50;5.20;;;13.90;40.60;;;;;;5051556;28;46358;-63
2022/06/15 01:06:14;;;;;;;14.43;5.70;;;13.90;40.80;;;;;;5052709;28;46372;-61
2022/06/15 01:08:58;;;;;;;7.77;4.90;;;13.80;41.30;;;;;;5050914;28;45886;-64
2022/06/15 01:11:52;;;;;;;9.40;5.13;;;13.80;41.40;;;;;;5051237;28;46880;-63
2022/06/15 01:14:49;;;;;;;12.83;5.57;;;13.80;41.80;;;;;;5050092;28;45848;-62
2022/06/15 01:17:29;;;;;;;11.93;5.33;;;13.80;41.70;;;;;;5050958;28;46348;-63
2022/06/15 01:20:16;;;;;;;12.83;5.33;;;13.80;41.70;;;;;;5050993;28;46424;-63
2022/06/15 01:22:54;;;;;;;12.37;5.10;;;13.80;41.90;;;;;;5050790;28;46865;-63
2022/06/15 01:25:40;;;;;;;12.70;5.63;;;13.80;42.00;;;;;;5051770;28;46327;-63
2022/06/15 01:28:24;;;;;;;8.90;5.10;;;13.70;41.80;;;;;;5054804;28;47630;-64
2022/06/15 01:30:53;;;;;;;8.40;4.83;;;13.70;41.80;;;;;;5049241;28;46774;-62
2022/06/15 01:33:30;;;;;;;10.13;5.80;;;13.70;41.80;;;;;;5049809;28;48068;-63
2022/06/15 01:36:17;;;;;;;9.63;5.27;;;13.70;41.80;;;;;;5055677;28;46357;-63
2022/06/15 01:39:07;;;;;;;10.57;6.10;;;13.60;41.70;;;;;;5048105;28;46326;-63
2022/06/15 01:41:56;;;;;;;8.33;5.10;;;13.60;42.30;;;;;;5049748;28;46402;-63
2022/06/15 01:44:29;;;;;;;10.40;5.20;;;13.50;42.40;;;;;;5049303;28;47187;-64
2022/06/15 01:46:56;;;;;;;10.20;5.30;;;13.50;42.70;;;;;;5049951;28;46464;-63
2022/06/15 01:49:27;;;;;;;11.43;5.90;;;13.40;42.70;;;;;;5049622;28;46470;-63
2022/06/15 01:51:55;;;;;;;9.47;5.97;;;13.40;43.10;;;;;;5054112;28;46961;-64
2022/06/15 01:54:28;;;;;;;9.00;4.87;;;13.30;44.40;;;;;;5055997;28;46639;-63
2022/06/15 01:56:56;;;;;;;7.27;4.70;;;13.30;43.30;;;;;;5056411;28;46358;-63
2022/06/15 01:59:36;;;;;;;12.73;5.40;;;13.30;43.30;;;;;;5050938;28;46453;-63
2022/06/15 02:02:19;;;;;;;8.70;5.77;;;13.30;43.70;;;;;;5050700;28;46663;-63
2022/06/15 02:05:04;;;;;;;11.10;6.20;;;13.30;43.70;;;;;;5047060;28;46392;-63
2022/06/15 02:07:53;;;;;;;13.23;5.20;;;13.30;43.80;;;;;;5047987;28;46315;-63
2022/06/15 02:10:18;;;;;;;12.33;5.53;;;13.20;44.00;;;;;;5051435;28;46487;-63
2022/06/15 02:12:50;;;;;;;13.23;6.10;;;13.20;43.80;;;;;;5049751;28;46526;-63
2022/06/15 02:15:18;;;;;;;10.67;6.40;;;13.10;43.80;;;;;;5047571;28;47857;-63
2022/06/15 02:17:47;;;;;;;15.97;5.57;;;13.10;44.20;;;;;;5048304;28;46368;-64
2022/06/15 02:20:21;;;;;;;10.63;5.87;;;13.10;44.40;;;;;;5048644;28;46299;-64
2022/06/15 02:22:51;;;;;;;11.63;6.00;;;13.10;44.80;;;;;;5052047;28;46500;-62
2022/06/15 02:25:20;;;;;;;13.07;5.80;;;13.10;45.00;;;;;;5050712;28;46542;-63
2022/06/15 02:27:50;;;;;;;13.07;5.77;;;13.10;45.00;;;;;;5046508;28;46444;-63
2022/06/15 02:30:20;;;;;;;9.63;5.63;;;13.10;44.90;;;;;;5048063;28;46378;-63
2022/06/15 02:32:48;;;;;;;13.80;6.10;;;13.00;44.80;;;;;;5049256;28;46638;-63
2022/06/15 02:35:15;;;;;;;10.37;6.10;;;13.00;44.80;;;;;;5048898;28;46509;-63
2022/06/15 02:37:41;;;;;;;8.80;6.37;;;12.90;44.80;;;;;;5048542;28;46490;-63
2022/06/15 02:40:08;;;;;;;12.60;5.80;;;12.90;45.00;;;;;;5049356;28;46383;-63
2022/06/15 02:42:36;;;;;;;13.73;6.50;;;12.80;45.20;;;;;;5050767;28;46494;-64
2022/06/15 02:45:06;;;;;;;15.90;6.20;;;12.70;45.40;;;;;;5048276;28;46422;-63
2022/06/15 02:47:35;;;;;;;25.83;6.37;;;12.60;45.70;;;;;;5048342;28;46353;-62
2022/06/15 02:50:02;;;;;;;10.53;5.63;;;12.60;45.90;;;;;;5050171;28;46413;-63
2022/06/15 02:52:33;;;;;;;12.83;5.77;;;12.50;46.10;;;;;;5050803;28;46426;-63
2022/06/15 02:54:59;;;;;;;13.30;6.07;;;12.50;46.20;;;;;;5049170;28;46943;-63
2022/06/15 02:57:26;;;;;;;9.83;5.40;;;12.50;46.30;;;;;;5050452;28;46420;-63
2022/06/15 02:59:52;;;;;;;12.53;5.43;;;12.40;46.30;;;;;;5053889;28;46456;-63
2022/06/15 03:02:19;;;;;;;10.20;5.37;;;12.40;46.40;;;;;;5055926;28;46860;-63
2022/06/15 03:04:46;;;;;;;8.10;5.47;;;12.30;46.50;;;;;;5054926;28;46749;-63
2022/06/15 03:07:13;;;;;;;8.30;5.17;;;12.10;46.90;;;;;;5053796;28;46378;-63
2022/06/15 03:09:42;;;;;;;6.87;4.73;;;12.00;48.40;;;;;;5053633;28;45843;-63
2022/06/15 03:12:10;;;;;;;19.47;5.27;;;11.90;47.50;;;;;;5053153;28;46396;-63
2022/06/15 03:14:36;;;;;;;10.70;5.10;;;11.80;47.70;;;;;;5054827;28;46859;-63
2022/06/15 03:17:01;;;;;;;9.00;4.90;;;11.70;47.90;;;;;;5049842;28;46536;-64
2022/06/15 03:19:27;;;;;;;13.30;4.90;;;11.70;48.20;;;;;;5055853;28;46700;-63
2022/06/15 03:21:53;;;;;;;9.27;4.20;;;11.60;48.20;;;;;;5052705;28;46388;-64
2022/06/15 03:24:20;;;;;;;9.90;4.30;;;11.50;48.50;;;;;;5057542;28;47920;-64
2022/06/15 03:26:46;;;;;;;10.50;5.40;;;11.40;48.40;;;;;;5061302;28;46420;-64
2022/06/15 03:29:11;;;;;;;7.40;4.80;;;11.40;48.60;;;;;;5051829;28;46537;-64
2022/06/15 03:31:37;;;;;;;14.43;5.13;;;11.40;48.40;;;;;;5054712;28;46548;-64
2022/06/15 03:34:03;;;;;;;12.70;5.00;;;11.50;48.40;;;;;;5054197;28;46476;-65
2022/06/15 03:36:28;;;;;;;7.17;4.97;;;11.60;48.30;;;;;;5053371;28;46309;-64
2022/06/15 03:38:54;;;;;;;8.17;4.90;;;11.70;48.10;;;;;;5053440;28;46491;-63
2022/06/15 03:41:20;;;;;;;10.30;5.70;;;11.80;47.90;;;;;;5054796;28;46274;-64
2022/06/15 03:43:46;;;;;;;8.00;5.47;;;11.90;47.60;;;;;;5051253;28;46553;-64
2022/06/15 03:46:12;;;;;;;13.50;5.50;;;12.10;47.30;;;;;;5052350;28;45914;-63
2022/06/15 03:48:38;;;;;;;9.53;5.47;;;12.20;47.20;;;;;;5051736;28;46696;-64
2022/06/15 03:51:04;;;;;;;10.80;5.13;;;12.30;47.00;;;;;;5050661;28;46679;-63
2022/06/15 03:53:30;;;;;;;9.27;5.90;;;12.50;47.00;;;;;;5052804;28;46755;-64
2022/06/15 03:55:55;;;;;;;10.70;5.77;;;12.50;46.90;;;;;;5051165;28;46386;-64
2022/06/15 03:58:21;;;;;;;8.90;5.07;;;12.70;46.70;;;;;;5049381;28;46381;-63
2022/06/15 04:00:48;;;;;;;10.00;5.60;;;12.80;46.60;;;;;;5050670;28;46398;-64
2022/06/15 04:03:13;;;;;;;10.20;5.60;;;12.90;46.40;;;;;;5047794;28;47121;-64
2022/06/15 04:05:52;;;;;;;19.03;6.03;;;13.10;46.30;;;;;;5052165;28;45771;-64
2022/06/15 04:08:34;;;;;;;12.03;5.57;;;13.20;46.20;;;;;;5048076;28;46287;-64
2022/06/15 04:11:03;;;;;;;12.90;5.73;;;13.40;45.90;;;;;;5049263;28;45885;-65
2022/06/15 04:13:29;;;;;;;9.90;5.00;;;13.50;45.50;;;;;;5052065;28;46532;-64
2022/06/15 04:15:55;;;;;;;17.00;5.77;;;13.70;45.20;;;;;;5050563;28;45813;-64
2022/06/15 04:18:21;;;;;;;12.00;5.50;;;14.00;44.80;;;;;;5053675;28;46620;-63
2022/06/15 04:20:47;;;;;;;10.60;4.90;;;14.20;44.40;;;;;;5058031;28;46436;-64
2022/06/15 04:23:15;;;;;;;8.00;5.00;;;14.50;43.70;;;;;;5059428;28;46070;-64
2022/06/15 04:25:45;;;;;;;9.40;5.23;;;14.70;42.70;;;;;;5058923;28;46381;-64
2022/06/15 04:28:14;;;;;;;11.33;5.60;;;15.00;43.00;;;;;;5051239;28;46461;-64
2022/06/15 04:30:40;;;;;;;9.83;4.73;;;15.40;42.30;;;;;;5055941;28;46432;-64
2022/06/15 04:33:05;;;;;;;9.97;5.20;;;15.60;41.90;;;;;;5049605;28;46391;-64
2022/06/15 04:35:31;;;;;;;10.70;5.50;;;15.90;41.40;;;;;;5055540;28;46451;-64
2022/06/15 04:37:57;;;;;;;13.73;5.80;;;16.10;40.80;;;;;;5048063;28;46507;-64
2022/06/15 04:40:22;;;;;;;10.67;5.10;;;16.30;40.80;;;;;;5055833;28;46500;-64
2022/06/15 04:42:48;;;;;;;11.40;5.30;;;16.70;40.00;;;;;;5051230;28;46405;-64
2022/06/15 04:45:15;;;;;;;11.70;5.00;;;18.10;38.40;;;;;;5046852;28;46890;-64
2022/06/15 04:47:41;;;;;;;12.80;5.30;;;20.10;34.50;;;;;;5055938;28;46512;-62
2022/06/15 04:50:08;;;;;;;11.07;6.03;;;22.00;31.50;;;;;;5048173;28;46629;-63
2022/06/15 04:52:34;;;;;;;9.90;5.17;;;23.60;28.30;;;;;;5051724;28;46183;-62
2022/06/15 04:55:00;;;;;;;8.53;4.47;;;24.80;25.90;;;;;;5054506;28;46339;-62
2022/06/15 04:57:25;;;;;;;13.27;4.60;;;25.60;24.90;;;;;;5049584;28;46548;-63
2022/06/15 04:59:51;;;;;;;13.57;4.23;;;26.00;23.50;;;;;;5056823;28;46040;-63
2022/06/15 05:02:17;;;;;;;7.90;4.10;;;26.40;22.60;;;;;;5050607;28;46551;-63
2022/06/15 05:04:42;;;;;;;11.83;4.83;;;25.50;23.30;;;;;;5052193;28;46350;-62
2022/06/15 05:07:09;;;;;;;8.57;4.40;;;24.80;24.20;;;;;;5050623;28;46752;-62
2022/06/15 05:09:34;;;;;;;10.50;3.87;;;25.00;23.60;;;;;;5051628;28;46469;-62
2022/06/15 05:12:00;;;;;;;10.77;4.13;;;25.70;22.00;;;;;;5052694;28;47251;-63
2022/06/15 05:14:26;;;;;;;8.00;3.57;;;25.30;21.90;;;;;;5051308;28;46419;-62
2022/06/15 05:16:52;;;;;;;9.83;4.33;;;25.70;21.40;;;;;;5053413;28;46470;-63
2022/06/15 05:19:18;;;;;;;9.50;3.97;;;26.50;19.90;;;;;;5052736;28;46886;-63
2022/06/15 05:21:45;;;;;;;8.47;3.70;;;27.30;18.60;;;;;;5053590;28;46443;-63
2022/06/15 05:24:11;;;;;;;6.30;3.97;;;28.30;17.00;;;;;;5050645;28;46473;-62
2022/06/15 05:26:36;;;;;;;9.60;3.90;;;28.70;16.60;;;;;;5053140;28;45792;-62
2022/06/15 05:29:02;;;;;;;9.03;3.90;;;29.10;16.10;;;;;;5052556;28;46646;-62
2022/06/15 05:31:28;;;;;;;7.83;4.10;;;29.40;15.60;;;;;;5052553;28;46435;-63
2022/06/15 05:33:55;;;;;;;6.03;3.17;;;29.90;14.30;;;;;;5058841;28;46488;-64
2022/06/15 05:36:31;;;;;;;8.70;3.97;;;30.30;13.50;;;;;;5054630;28;46363;-64
2022/06/15 05:38:57;;;;;;;7.00;4.00;;;30.60;12.20;;;;;;5047442;28;46264;-63
2022/06/15 05:41:23;;;;;;;9.17;3.70;;;31.00;12.00;;;;;;5053014;28;47325;-63
2022/06/15 05:43:52;;;;;;;8.33;4.00;;;31.40;11.20;;;;;;5050729;28;45703;-63
2022/06/15 05:46:32;;;;;;;7.97;3.97;;;31.70;10.40;;;;;;5052531;28;46379;-61
2022/06/15 05:48:59;;;;;;;10.10;3.80;;;32.10;9.30;;;;;;5051455;28;46308;-62
2022/06/15 05:51:25;;;;;;;8.63;3.33;;;32.20;9.60;;;;;;5042241;28;48204;-61
2022/06/15 05:53:51;;;;;;;8.37;3.43;;;31.90;9.50;;;;;;5053148;28;46361;-61
2022/06/15 05:56:17;;;;;;;8.60;3.77;;;30.20;12.30;;;;;;5051677;28;46478;-62
2022/06/15 05:58:44;;;;;;;7.63;3.50;;;28.20;15.70;;;;;;5051742;28;46490;-62
2022/06/15 06:01:17;;;;;;;5.50;3.50;;;26.80;18.00;;;;;;5048519;28;46445;-63
2022/06/15 06:03:42;;;;;;;7.10;3.10;;;25.70;19.20;;;;;;5052313;28;46427;-61
2022/06/15 06:06:10;;;;;;;13.47;4.10;;;24.80;20.80;;;;;;5049206;28;46499;-62
2022/06/15 06:08:36;;;;;;;6.27;4.33;;;24.10;21.70;;;;;;5049917;28;46572;-62
2022/06/15 06:11:01;;;;;;;10.40;4.10;;;23.70;22.00;;;;;;5048739;28;47400;-62
2022/06/15 06:13:27;;;;;;;7.07;3.73;;;23.10;22.80;;;;;;5051414;28;46456;-60
2022/06/15 06:15:55;;;;;;;8.47;4.17;;;22.80;23.20;;;;;;5051657;28;46016;-61
2022/06/15 06:18:21;;;;;;;9.90;4.60;;;22.60;23.30;;;;;;5047915;28;46678;-59
2022/06/15 06:20:47;;;;;;;9.00;4.83;;;22.20;24.00;;;;;;5048142;28;46623;-61
2022/06/15 06:23:13;;;;;;;11.97;4.80;;;22.00;23.80;;;;;;5048985;28;46420;-60
2022/06/15 06:25:39;;;;;;;8.23;4.43;;;21.90;23.80;;;;;;5049606;28;46597;-60
2022/06/15 06:28:05;;;;;;;8.83;5.70;;;21.90;24.10;;;;;;5050108;28;46446;-60
2022/06/15 06:30:30;;;;;;;9.87;5.10;;;21.90;24.40;;;;;;5043511;28;47221;-60
2022/06/15 06:32:56;;;;;;;9.03;4.97;;;21.80;24.60;;;;;;5051374;28;46456;-61
2022/06/15 06:35:21;;;;;;;10.80;5.00;;;21.90;25.00;;;;;;5049930;28;46466;-61
2022/06/15 06:37:47;;;;;;;8.80;4.60;;;21.80;25.20;;;;;;5049927;28;46518;-62
2022/06/15 06:40:15;;;;;;;7.80;4.57;;;21.80;25.40;;;;;;5052390;28;46503;-61
2022/06/15 06:42:41;;;;;;;9.13;4.53;;;21.80;25.60;;;;;;5057507;28;46286;-61
2022/06/15 06:45:09;;;;;;;14.77;5.60;;;21.80;25.70;;;;;;5054352;28;46484;-62
2022/06/15 06:47:35;;;;;;;10.70;4.70;;;21.80;26.10;;;;;;5055030;28;46446;-60
2022/06/15 06:50:00;;;;;;;10.50;4.57;;;21.80;26.60;;;;;;5052663;28;46952;-62
2022/06/15 06:52:26;;;;;;;11.20;4.50;;;22.00;26.50;;;;;;5054416;28;46499;-62
2022/06/15 06:54:51;;;;;;;9.60;4.93;;;22.10;26.50;;;;;;5058465;28;46764;-62
2022/06/15 06:57:17;;;;;;;10.67;4.60;;;22.30;26.40;;;;;;5053091;28;45883;-63
2022/06/15 06:59:43;;;;;;;10.73;4.20;;;22.40;26.50;;;;;;5055594;28;48125;-63
2022/06/15 07:02:10;;;;;;;10.57;3.97;;;22.40;26.40;;;;;;5054935;28;46306;-61
2022/06/15 07:04:35;;;;;;;14.53;3.97;;;22.60;26.40;;;;;;5050901;28;46413;-62
2022/06/15 07:07:01;;;;;;;10.33;3.93;;;22.70;26.10;;;;;;5051178;28;46377;-64
2022/06/15 07:09:27;;;;;;;9.80;4.77;;;22.60;26.70;;;;;;5053716;28;46667;-60
2022/06/15 07:11:53;;;;;;;10.90;5.27;;;22.40;27.30;;;;;;5052476;28;46443;-60
2022/06/15 07:14:19;;;;;;;7.70;5.00;;;22.20;27.90;;;;;;5055096;28;46464;-61
2022/06/15 07:16:44;;;;;;;10.63;5.17;;;22.00;28.50;;;;;;5051167;28;46730;-62
2022/06/15 07:19:10;;;;;;;10.37;5.47;;;22.20;28.40;;;;;;5051255;28;46420;-61
2022/06/15 07:21:38;;;;;;;9.13;5.00;;;22.50;28.00;;;;;;5051618;28;46378;-61
2022/06/15 07:24:04;;;;;;;9.00;4.73;;;22.50;28.70;;;;;;5050550;28;46406;-62
2022/06/15 07:26:38;;;;;;;8.10;4.70;;;22.60;28.10;;;;;;5051699;28;46334;-61
2022/06/15 07:29:04;;;;;;;9.73;4.67;;;22.90;28.00;;;;;;5044587;28;46505;-62
2022/06/15 07:31:38;;;;;;;9.87;5.07;;;23.10;27.80;;;;;;5057008;28;46437;-60
2022/06/15 07:34:05;;;;;;;7.20;4.27;;;23.00;27.90;;;;;;5052039;28;46405;-60
2022/06/15 07:36:31;;;;;;;12.23;5.33;;;23.10;27.80;;;;;;5051521;28;46528;-60
2022/06/15 07:38:58;;;;;;;7.30;4.13;;;23.30;27.40;;;;;;5051938;28;48337;-61
2022/06/15 07:41:25;;;;;;;8.33;4.27;;;23.50;27.20;;;;;;5047697;28;46485;-61
2022/06/15 07:43:52;;;;;;;7.50;4.83;;;23.70;27.10;;;;;;5058030;28;46586;-61
2022/06/15 07:46:17;;;;;;;13.03;4.83;;;23.80;27.10;;;;;;5050682;28;46397;-62
2022/06/15 07:51:28;;;;;;;8.60;5.00;;;23.90;27.10;;;;;;5056214;28;46467;-61
2022/06/15 07:53:56;;;;;;;7.57;4.77;;;24.10;27.00;;;;;;5052056;28;46473;-61
2022/06/15 07:56:21;;;;;;;11.90;4.50;;;24.30;26.90;;;;;;5052436;28;46613;-61
2022/06/15 07:58:47;;;;;;;10.40;4.60;;;24.50;26.90;;;;;;5050210;28;47031;-61
2022/06/15 08:01:13;;;;;;;7.30;4.33;;;24.70;26.70;;;;;;5051595;28;46632;-61
2022/06/15 08:03:38;;;;;;;11.47;4.30;;;24.90;25.90;;;;;;5052714;28;46435;-60
2022/06/15 08:06:04;;;;;;;12.80;4.37;;;24.80;26.00;;;;;;5053603;28;46361;-62
2022/06/15 08:08:31;;;;;;;8.23;4.17;;;25.00;26.50;;;;;;5048870;28;47223;-61
2022/06/15 08:10:56;;;;;;;8.93;4.80;;;25.10;26.00;;;;;;5052437;28;46458;-61
2022/06/15 08:13:22;;;;;;;8.57;4.50;;;25.20;26.10;;;;;;5051237;28;46425;-61
2022/06/15 08:15:50;;;;;;;8.93;4.43;;;25.30;26.10;;;;;;5054559;28;46595;-65
2022/06/15 08:18:20;;;;;;;7.87;4.57;;;25.30;26.10;;;;;;5083445;22;46135;-60
2022/06/15 08:20:51;;;;;;;9.97;4.13;;;25.50;26.20;;;;;;5088722;27;46453;-61
2022/06/15 08:23:20;;;;;;;7.33;3.70;;;25.60;26.30;;;;;;5089794;27;46669;-61
2022/06/15 08:25:53;;;;;;;8.43;4.27;;;25.70;26.30;;;;;;5091732;27;46526;-60
2022/06/15 08:28:21;;;;;;;8.30;3.90;;;25.80;26.40;;;;;;5090220;27;47930;-61
2022/06/15 08:30:48;;;;;;;7.30;3.83;;;25.90;26.00;;;;;;5093857;27;46460;-61
2022/06/15 08:33:15;;;;;;;7.73;4.40;;;26.00;25.50;;;;;;5093814;27;46407;-63
2022/06/15 08:35:41;;;;;;;7.53;4.10;;;26.00;25.30;;;;;;5094187;27;45968;-62
2022/06/15 08:38:10;;;;;;;6.73;3.97;;;25.90;25.60;;;;;;5090881;27;48040;-61
2022/06/15 08:41:02;;;;;;;6.03;3.90;;;25.90;25.90;;;;;;5086750;27;46246;-62
2022/06/15 08:43:48;;;;;;;10.67;4.33;;;26.10;25.80;;;;;;5094517;27;46408;-63
2022/06/15 08:46:32;;;;;;;11.33;4.20;;;26.20;25.80;;;;;;5090713;27;46578;-62
2022/06/15 08:49:07;;;;;;;7.30;4.30;;;26.10;25.80;;;;;;5091431;27;46529;-62
2022/06/15 08:51:45;;;;;;;10.17;3.60;;;26.10;25.90;;;;;;5089800;27;46349;-62
2022/06/15 08:54:23;;;;;;;5.67;3.67;;;26.10;25.80;;;;;;5089102;27;45802;-65
2022/06/15 08:56:58;;;;;;;19.73;3.83;;;26.20;25.50;;;;;;5088732;27;46881;-63
2022/06/15 08:59:35;;;;;;;8.70;3.30;;;26.30;25.20;;;;;;5087268;27;47208;-64
2022/06/15 09:02:14;;;;;;;6.50;3.50;;;26.20;25.60;;;;;;5113405;22;47217;-61
2022/06/15 09:04:46;;;;;;;8.60;3.63;;;26.40;25.30;;;;;;5065583;28;46402;-60
2022/06/15 09:07:40;;;;;;;9.63;3.97;;;26.50;25.00;;;;;;5070843;27;46407;-61
2022/06/15 09:10:08;;;;;;;8.20;3.70;;;26.60;24.70;;;;;;5064260;28;48003;-60
2022/06/15 09:12:58;;;;;;;8.03;3.20;;;26.70;24.20;;;;;;5066322;28;46506;-62
2022/06/15 09:15:42;;;;;;;7.73;3.47;;;26.70;25.00;;;;;;5072907;28;46380;-64
2022/06/15 09:18:25;;;;;;;8.10;3.10;;;27.00;24.40;;;;;;5071459;28;46428;-60
2022/06/15 09:21:00;;;;;;;7.17;3.93;;;27.30;23.80;;;;;;5068587;28;48002;-61
2022/06/15 09:23:34;;;;;;;4.83;2.77;;;27.40;23.20;;;;;;5071635;28;46436;-61
2022/06/15 09:26:11;;;;;;;8.67;3.80;;;27.30;22.70;;;;;;5070508;28;46432;-62
2022/06/15 09:28:43;;;;;;;5.97;3.07;;;27.10;22.50;;;;;;5070917;28;46394;-62
2022/06/15 09:31:20;;;;;;;5.83;3.00;;;27.20;22.50;;;;;;5070392;28;46348;-61
2022/06/15 09:34:03;;;;;;;6.03;3.03;;;27.40;22.60;;;;;;5068634;28;47084;-62
2022/06/15 09:36:42;;;;;;;6.33;3.13;;;27.50;22.40;;;;;;5069710;28;46405;-61
2022/06/15 09:39:09;;;;;;;7.77;3.13;;;27.40;21.50;;;;;;5067657;28;46670;-61
2022/06/15 09:41:40;;;;;;;5.93;2.57;;;27.10;21.80;;;;;;5070208;28;48027;-61
2022/06/15 09:44:59;;;;;;;5.10;2.77;;;27.10;21.80;;;;;;5069854;28;46489;-62
2022/06/15 09:47:34;;;;;;;8.07;2.90;;;27.40;21.30;;;;;;5053860;28;46365;-61
2022/06/15 09:50:20;;;;;;;8.03;3.10;;;27.30;21.20;;;;;;5068599;28;46451;-59
2022/06/15 09:53:10;;;;;;;8.73;3.33;;;27.40;21.60;;;;;;5067331;28;47130;-61
2022/06/15 09:55:44;;;;;;;8.27;3.03;;;27.40;21.70;;;;;;5070963;28;46637;-61
2022/06/15 09:58:14;;;;;;;6.53;2.97;;;27.30;21.80;;;;;;5071607;28;46436;-59
2022/06/15 10:00:40;;;;;;;5.23;2.87;;;27.60;21.30;;;;;;5072154;28;46719;-62
2022/06/15 10:03:32;;;;;;;7.33;3.10;;;27.70;20.70;;;;;;5069550;28;47035;-60
2022/06/15 10:06:22;;;;;;;5.23;3.10;;;27.80;21.20;;;;;;5069529;27;46469;-62
2022/06/15 10:08:48;;;;;;;7.67;3.20;;;27.90;21.50;;;;;;5063011;28;46434;-62
2022/06/15 10:11:40;;;;;;;6.47;3.37;;;28.00;20.80;;;;;;5069205;28;46404;-61
2022/06/15 10:14:23;;;;;;;6.10;3.17;;;28.00;20.20;;;;;;5067639;28;46504;-61
2022/06/15 10:17:02;;;;;;;7.00;3.30;;;28.10;20.60;;;;;;5071133;28;46848;-60
2022/06/15 10:19:31;;;;;;;9.83;2.97;;;28.20;20.00;;;;;;5068216;28;46401;-60
2022/06/15 10:22:00;;;;;;;9.23;3.13;;;28.30;20.50;;;;;;5067965;28;46638;-58
2022/06/15 10:24:30;;;;;;;5.57;3.17;;;28.40;19.80;;;;;;5065661;28;46979;-60
2022/06/15 10:27:18;;;;;;;7.10;3.00;;;28.50;19.90;;;;;;5066995;28;46432;-60
2022/06/15 10:29:55;;;;;;;7.03;3.23;;;28.40;21.10;;;;;;5069010;28;46499;-61
2022/06/15 10:32:20;;;;;;;5.63;2.70;;;28.40;21.00;;;;;;5072003;28;46526;-61
2022/06/15 10:34:46;;;;;;;9.83;3.23;;;28.50;20.80;;;;;;5069570;28;46363;-61
2022/06/15 10:37:28;;;;;;;8.40;3.37;;;28.50;20.40;;;;;;5064496;28;46374;-61
2022/06/15 10:40:00;;;;;;;11.40;4.00;;;28.50;20.10;;;;;;5064826;28;46457;-60
2022/06/15 10:42:35;;;;;;;5.60;3.03;;;28.40;20.50;;;;;;5064094;28;45917;-60
2022/06/15 10:45:20;;;;;;;8.67;3.23;;;28.20;20.30;;;;;;5067975;28;47324;-60
2022/06/15 10:48:00;;;;;;;6.00;3.33;;;28.20;20.40;;;;;;5068664;28;46448;-61
2022/06/15 10:50:47;;;;;;;6.00;3.10;;;28.20;20.50;;;;;;5071122;28;46352;-60
2022/06/15 10:53:30;;;;;;;11.60;3.50;;;28.20;20.80;;;;;;5075664;28;46414;-60
2022/06/15 11:02:06;;;;;;;8.43;3.70;;;28.40;21.20;;;;;;5069242;28;45848;-61
2022/06/15 11:04:54;;;;;;;9.03;3.70;;;28.40;20.70;;;;;;5071178;28;46656;-60
2022/06/15 11:07:22;;;;;;;7.23;3.23;;;28.50;20.10;;;;;;5055311;28;47989;-60
2022/06/15 11:09:54;;;;;;;10.93;3.50;;;28.50;20.10;;;;;;5067587;28;46201;-60
2022/06/15 11:12:44;;;;;;;7.77;3.60;;;28.40;20.90;;;;;;5068919;28;46536;-60
2022/06/15 11:15:23;;;;;;;8.30;3.30;;;28.40;20.20;;;;;;5066918;28;46380;-61
2022/06/15 11:18:03;;;;;;;7.87;3.90;;;28.40;19.70;;;;;;5069241;28;46572;-61
2022/06/15 11:20:42;;;;;;;6.97;3.60;;;28.60;19.60;;;;;;5065843;28;46620;-62
2022/06/15 11:23:14;;;;;;;6.80;3.10;;;28.20;19.10;;;;;;5073323;28;46496;-61
2022/06/15 11:25:49;;;;;;;9.83;3.30;;;28.10;19.50;;;;;;5069152;28;45874;-61
2022/06/15 11:28:24;;;;;;;7.33;3.13;;;28.10;19.40;;;;;;5065735;28;46408;-60
2022/06/15 11:31:07;;;;;;;5.77;3.10;;;28.20;20.30;;;;;;5070490;28;46459;-60
2022/06/15 11:33:50;;;;;;;9.23;4.40;;;28.40;20.90;;;;;;5070951;28;46053;-61
2022/06/15 11:36:30;;;;;;;9.03;3.33;;;28.40;20.80;;;;;;5073139;28;46569;-62
2022/06/15 11:39:07;;;;;;;8.00;3.30;;;28.50;20.80;;;;;;5070555;28;48452;-59
2022/06/15 11:41:44;;;;;;;11.13;3.70;;;28.80;21.00;;;;;;5072591;28;45828;-59
2022/06/15 11:44:16;;;;;;;7.40;3.17;;;29.00;20.10;;;;;;5074488;28;46416;-61
2022/06/15 11:47:07;;;;;;;8.70;3.70;;;29.20;20.00;;;;;;5073957;28;46573;-60
2022/06/15 11:50:00;;;;;;;6.03;3.27;;;29.20;20.00;;;;;;5072229;28;46471;-60
2022/06/15 11:52:32;;;;;;;5.13;3.37;;;29.30;21.00;;;;;;5069430;28;46774;-61
2022/06/15 11:55:29;;;;;;;6.97;3.10;;;29.20;19.50;;;;;;5072630;28;46658;-61
2022/06/15 11:58:10;;;;;;;12.37;3.80;;;29.20;19.30;;;;;;5068030;28;46173;-62
2022/06/15 12:00:57;;;;;;;6.80;3.23;;;29.20;18.70;;;;;;5069496;28;46425;-60
2022/06/15 12:04:00;;;;;;;7.57;3.77;;;29.40;18.10;;;;;;5072649;28;46404;-61
2022/06/15 12:06:45;;;;;;;11.07;3.77;;;29.50;17.60;;;;;;5069403;28;46835;-61
2022/06/15 12:09:29;;;;;;;6.10;3.37;;;29.30;18.40;;;;;;5068402;28;46448;-64
2022/06/15 12:12:40;;;;;;;5.90;3.40;;;29.30;18.70;;;;;;5067980;28;46580;-63
2022/06/15 12:15:20;;;;;;;8.27;3.50;;;29.40;19.00;;;;;;5072712;28;46333;-61
2022/06/15 12:18:18;;;;;;;5.97;3.17;;;29.50;18.30;;;;;;5071440;28;46843;-62
2022/06/15 12:20:55;;;;;;;6.00;3.30;;;29.50;18.10;;;;;;5058629;27;46643;-63
2022/06/15 12:23:45;;;;;;;6.63;3.23;;;29.40;18.10;;;;;;5067846;28;47386;-63
2022/06/15 12:26:26;;;;;;;8.97;3.90;;;29.60;18.10;;;;;;5070929;28;45753;-62
2022/06/15 12:28:57;;;;;;;6.53;3.40;;;29.80;17.90;;;;;;5071119;28;46462;-62
2022/06/15 12:31:35;;;;;;;5.83;3.13;;;29.90;17.50;;;;;;5066201;28;46474;-61
2022/06/15 12:34:24;;;;;;;9.07;3.30;;;29.80;17.50;;;;;;5065417;28;47224;-61
2022/06/15 12:37:00;;;;;;;5.73;3.13;;;29.90;17.50;;;;;;5059973;28;46432;-62
2022/06/15 12:39:43;;;;;;;8.00;3.50;;;29.90;17.60;;;;;;5067641;28;45965;-63
2022/06/15 12:42:14;;;;;;;5.07;2.90;;;30.00;17.50;;;;;;5069781;28;46343;-60
2022/06/15 12:45:19;;;;;;;7.50;3.77;;;30.20;16.80;;;;;;5071850;28;48446;-62
2022/06/15 12:47:55;;;;;;;5.90;3.53;;;29.90;17.60;;;;;;5065381;28;46718;-61
2022/06/15 12:50:38;;;;;;;9.53;3.40;;;29.90;17.60;;;;;;5067168;28;46523;-62
2022/06/15 12:53:36;;;;;;;5.83;3.07;;;29.60;17.80;;;;;;5072007;28;46846;-60
2022/06/15 12:56:33;;;;;;;7.90;3.53;;;29.70;17.40;;;;;;5067537;28;46737;-60
2022/06/15 12:59:08;;;;;;;13.67;3.57;;;29.70;17.20;;;;;;5067623;28;46675;-61
2022/06/15 13:01:46;;;;;;;5.47;3.50;;;29.70;15.80;;;;;;5069812;28;46735;-61
2022/06/15 13:04:42;;;;;;;5.87;2.83;;;29.40;16.70;;;;;;5068194;28;46360;-63
2022/06/15 13:07:41;;;;;;;7.80;3.27;;;29.50;17.30;;;;;;5069091;28;46455;-62
2022/06/15 13:10:07;;;;;;;5.17;3.13;;;29.70;16.90;;;;;;5039426;28;46407;-61
2022/06/15 13:13:01;;;;;;;8.90;3.40;;;29.90;16.60;;;;;;5068602;28;46321;-61
2022/06/15 13:15:53;;;;;;;5.37;2.73;;;30.20;16.70;;;;;;5064757;28;46529;-61
2022/06/15 13:18:39;;;;;;;4.90;3.20;;;30.50;16.40;;;;;;5070184;28;46449;-61
2022/06/15 13:21:06;;;;;;;7.70;2.90;;;30.50;15.80;;;;;;5073974;28;46476;-63